アトランタ の空港の天気 - METARとTAF

ハーツフィールド・ジャクソン・アトランタ国際空港 ( KATL / ATL ) - アメリカ ジョージア州アトランタ
飛行場実況気象(Metar)
観測時間11/27 04:52 EST (11/27 09:52 UTC)
風向・風速南 6m/s 瞬間風速9m/s
視程8050m
天気現象もや
全天を覆う雲 雲底高度 120m
気温17.2℃
湿度93%
気圧1007.4hPa
METARKATL 270952Z 18011G17KT 5SM BR OVC004 17/16 A2977 RMK AO2 LTG DSNT SE RAE49 SLP074 P0009 T01720161
過去の天気等 Google飛行場航空写真 Wunderground天気予報

過去48時間のMETAR

飛行場予報(TAF)
発表時間: 11/27 04:41 EST (11/27 09:41 UTC)
予報対象時間: 27日5時 EST ~ 28日7時 EST
風向・風速南東 5m/s 瞬間風速 10m/s
視程6440m
天気現象弱いしゅう雨 もや
全天を覆う雲 雲底高度 90m
27日8時 EST から
風向・風速南南西 7m/s 瞬間風速 13m/s
視程10km以上
天気現象周辺でしゅう雨
全天の4割程度の雲 雲底高度 210m
全天の8割程度の雲 雲底高度 370m
27日10時 EST から
風向・風速南西 6m/s 瞬間風速 12m/s
視程10km以上
少しの雲 雲底高度 760m
全天の4割程度の雲 雲底高度 1520m
27日13時 EST から
風向・風速西南西 5m/s 瞬間風速 10m/s
視程10km以上
少しの雲 雲底高度 4570m
27日21時 EST から
風向・風速西 4m/s
視程10km以上
全天の4割程度の雲 雲底高度 1220m
KATL 270941Z 2710/2812 14010G20KT 4SM -SHRA BR OVC003
FM271300 20014G25KT P6SM VCSH SCT007 BKN012 WS020/21030KT
FM271500 23012G24KT P6SM FEW025 SCT050 WS020/21030KT
FM271800 25010G20KT P6SM FEW150
FM280200 27008KT P6SM SCT040